createdAt,value
2023-04-02T00:00:54.556Z,5.69
2023-04-02T00:01:54.568Z,5.68
2023-04-02T00:02:54.733Z,5.69
2023-04-02T00:03:54.612Z,5.68
2023-04-02T00:04:54.519Z,5.66
2023-04-02T00:05:54.514Z,5.62
2023-04-02T00:06:54.507Z,5.62
2023-04-02T00:07:54.519Z,5.62
2023-04-02T00:08:54.500Z,5.57
2023-04-02T00:09:54.504Z,5.56
2023-04-02T00:10:54.470Z,5.51
2023-04-02T00:11:54.456Z,5.48
2023-04-02T00:12:54.444Z,5.47
2023-04-02T00:13:54.428Z,5.48
2023-04-02T00:14:54.490Z,5.47
2023-04-02T00:15:54.405Z,5.44
2023-04-02T00:16:54.405Z,5.46
2023-04-02T00:17:54.396Z,5.43
2023-04-02T00:18:54.388Z,5.39
2023-04-02T00:19:54.381Z,5.41
2023-04-02T00:20:54.380Z,5.38
2023-04-02T00:21:54.374Z,5.41
2023-04-02T00:22:54.350Z,5.38
2023-04-02T00:23:54.334Z,5.36
2023-04-02T00:24:54.357Z,5.38
2023-04-02T00:25:54.313Z,5.38
2023-04-02T00:26:54.303Z,5.36
2023-04-02T00:27:54.298Z,5.33
2023-04-02T00:28:54.288Z,5.32
2023-04-02T00:29:54.326Z,5.30
2023-04-02T00:30:54.267Z,5.30
2023-04-02T00:31:54.273Z,5.29
2023-04-02T00:32:54.334Z,5.25
2023-04-02T00:33:54.235Z,5.26
2023-04-02T00:34:54.241Z,5.25
2023-04-02T00:35:54.299Z,5.23
2023-04-02T00:36:54.197Z,5.21
2023-04-02T00:37:54.195Z,5.21
2023-04-02T00:38:54.184Z,5.21
2023-04-02T00:39:54.208Z,5.21
2023-04-02T00:40:54.156Z,5.21
2023-04-02T00:41:54.140Z,5.25
2023-04-02T00:42:54.155Z,5.26
2023-04-02T00:43:54.148Z,5.26
2023-04-02T00:44:54.148Z,5.20
2023-04-02T00:45:54.136Z,5.20
2023-04-02T00:46:54.112Z,5.15
2023-04-02T00:47:54.111Z,5.15
2023-04-02T00:48:54.071Z,5.17
2023-04-02T00:49:54.077Z,5.14
2023-04-02T00:50:54.069Z,5.12
2023-04-02T00:51:54.052Z,5.11
2023-04-02T00:52:54.058Z,5.11
2023-04-02T00:53:54.033Z,5.11
2023-04-02T00:54:54.035Z,5.07
2023-04-02T00:55:54.021Z,5.07
2023-04-02T00:56:54.054Z,5.07
2023-04-02T00:57:53.990Z,5.08
2023-04-02T00:58:53.999Z,5.07
2023-04-02T00:59:54.020Z,5.10
2023-04-02T01:00:53.969Z,5.05
2023-04-02T01:01:53.945Z,5.05
2023-04-02T01:02:53.981Z,5.07
2023-04-02T01:03:53.983Z,4.99
2023-04-02T01:04:53.976Z,5.00
2023-04-02T01:05:53.896Z,4.99
2023-04-02T01:06:53.919Z,4.97
2023-04-02T01:07:53.873Z,4.94
2023-04-02T01:08:53.870Z,4.96
2023-04-02T01:09:53.887Z,4.96
2023-04-02T01:10:53.888Z,4.94
2023-04-02T01:11:53.851Z,4.90
2023-04-02T01:12:53.834Z,4.92
2023-04-02T01:13:53.810Z,4.89
2023-04-02T01:14:53.975Z,4.89
2023-04-02T01:15:54.069Z,4.86
2023-04-02T01:16:53.815Z,4.84
2023-04-02T01:17:53.859Z,4.87
2023-04-02T01:18:53.764Z,4.89
2023-04-02T01:19:53.778Z,4.86
2023-04-02T01:20:53.748Z,4.82
2023-04-02T01:21:53.727Z,4.80
2023-04-02T01:22:53.733Z,4.82
2023-04-02T01:23:53.740Z,4.78
2023-04-02T01:24:53.728Z,4.80
2023-04-02T01:25:53.695Z,4.80
2023-04-02T01:26:53.730Z,4.78
2023-04-02T01:27:53.663Z,4.77
2023-04-02T01:28:53.661Z,4.77
2023-04-02T01:29:53.672Z,4.78
2023-04-02T01:30:53.662Z,4.78
2023-04-02T01:31:53.693Z,4.75
2023-04-02T01:32:53.702Z,4.73
2023-04-02T01:33:53.619Z,4.74
2023-04-02T01:34:53.621Z,4.73
2023-04-02T01:35:53.621Z,4.68
2023-04-02T01:36:53.590Z,4.68
2023-04-02T01:37:53.564Z,4.67
2023-04-02T01:38:53.566Z,4.68
2023-04-02T01:39:53.575Z,4.70
2023-04-02T01:40:53.555Z,4.66
2023-04-02T01:41:53.536Z,4.63
2023-04-02T01:42:53.526Z,4.63
2023-04-02T01:43:53.548Z,4.66
2023-04-02T01:44:53.523Z,4.63
2023-04-02T01:45:53.523Z,4.63
2023-04-02T01:46:53.528Z,4.67
2023-04-02T01:47:53.536Z,4.67
2023-04-02T01:48:53.506Z,4.63
2023-04-02T01:49:53.484Z,4.62
2023-04-02T01:50:53.451Z,4.63
2023-04-02T01:51:53.428Z,4.66
2023-04-02T01:52:53.424Z,4.60
2023-04-02T01:53:53.425Z,4.60
2023-04-02T01:54:53.974Z,4.58
2023-04-02T01:55:53.385Z,4.59
2023-04-02T01:56:53.405Z,4.59
2023-04-02T01:57:53.368Z,4.55
2023-04-02T01:58:53.354Z,4.56
2023-04-02T01:59:53.374Z,4.56
2023-04-02T02:00:53.385Z,4.55
2023-04-02T02:01:53.336Z,4.55
2023-04-02T02:02:53.341Z,4.55
2023-04-02T02:03:53.321Z,4.52
2023-04-02T02:04:53.320Z,4.53
2023-04-02T02:05:53.305Z,4.55
2023-04-02T02:06:53.287Z,4.53
2023-04-02T02:07:53.302Z,4.53
2023-04-02T02:08:53.432Z,4.50
2023-04-02T02:09:53.245Z,4.52
2023-04-02T02:10:53.230Z,4.50
2023-04-02T02:11:53.222Z,4.52
2023-04-02T02:12:53.257Z,4.41
2023-04-02T02:13:53.202Z,4.38
2023-04-02T02:14:53.236Z,4.42
2023-04-02T02:15:53.175Z,4.41
2023-04-02T02:16:53.177Z,4.42
2023-04-02T02:17:53.176Z,4.42
2023-04-02T02:18:53.149Z,4.41
2023-04-02T02:19:53.161Z,4.40
2023-04-02T02:20:53.138Z,4.41
2023-04-02T02:21:53.132Z,4.41
2023-04-02T02:22:53.111Z,4.41
2023-04-02T02:23:53.105Z,4.37
2023-04-02T02:24:53.128Z,4.32
2023-04-02T02:25:53.086Z,4.34
2023-04-02T02:26:53.080Z,4.31
2023-04-02T02:27:53.060Z,4.31
2023-04-02T02:28:53.055Z,4.31
2023-04-02T02:29:53.073Z,4.31
2023-04-02T02:30:53.036Z,4.31
2023-04-02T02:31:53.109Z,4.31
2023-04-02T02:32:53.152Z,4.30
2023-04-02T02:33:53.059Z,4.32
2023-04-02T02:34:53.169Z,4.31
2023-04-02T02:35:53.053Z,4.28
2023-04-02T02:36:52.981Z,4.31
2023-04-02T02:37:52.956Z,4.30
2023-04-02T02:38:54.370Z,4.31
2023-04-02T02:39:52.939Z,4.30
2023-04-02T02:40:52.954Z,4.28
2023-04-02T02:41:52.917Z,4.24
2023-04-02T02:42:52.922Z,4.24
2023-04-02T02:43:52.921Z,4.26
2023-04-02T02:44:52.893Z,4.24
2023-04-02T02:45:52.959Z,4.23
2023-04-02T02:46:52.880Z,4.24
2023-04-02T02:47:52.904Z,4.23
2023-04-02T02:48:52.858Z,4.23
2023-04-02T02:49:52.849Z,4.23
2023-04-02T02:50:52.858Z,4.17
2023-04-02T02:51:52.837Z,4.16
2023-04-02T02:52:52.813Z,4.16
2023-04-02T02:53:52.791Z,4.16
2023-04-02T02:54:52.835Z,4.14
2023-04-02T02:55:52.790Z,4.17
2023-04-02T02:56:52.798Z,4.14
2023-04-02T02:57:52.753Z,4.14
2023-04-02T02:58:52.773Z,4.12
2023-04-02T02:59:52.742Z,4.08
2023-04-02T03:00:52.751Z,4.06
2023-04-02T03:01:52.711Z,4.05
2023-04-02T03:02:52.915Z,4.05
2023-04-02T03:03:52.800Z,4.08
2023-04-02T03:04:52.710Z,4.06
2023-04-02T03:05:52.699Z,4.02
2023-04-02T03:06:52.772Z,4.02
2023-04-02T03:07:52.652Z,3.99
2023-04-02T03:08:52.664Z,3.98
2023-04-02T03:09:52.657Z,4.01
2023-04-02T03:10:52.636Z,4.02
2023-04-02T03:11:52.613Z,4.02
2023-04-02T03:12:52.618Z,4.02
2023-04-02T03:13:52.609Z,4.02
2023-04-02T03:14:52.580Z,3.99
2023-04-02T03:15:52.614Z,3.99
2023-04-02T03:16:52.564Z,3.96
2023-04-02T03:17:52.572Z,3.98
2023-04-02T03:18:52.567Z,3.94
2023-04-02T03:19:52.571Z,3.95
2023-04-02T03:20:52.535Z,3.91
2023-04-02T03:21:52.509Z,3.92
2023-04-02T03:22:52.504Z,3.91
2023-04-02T03:23:52.491Z,3.94
2023-04-02T03:24:52.493Z,3.91
2023-04-02T03:25:52.508Z,3.91
2023-04-02T03:26:52.472Z,3.92
2023-04-02T03:27:52.458Z,3.91
2023-04-02T03:28:52.449Z,3.92
2023-04-02T03:29:52.430Z,3.92
2023-04-02T03:30:52.491Z,3.91
2023-04-02T03:31:52.424Z,3.94
2023-04-02T03:32:52.474Z,3.92
2023-04-02T03:33:52.408Z,3.88
2023-04-02T03:34:52.384Z,3.87
2023-04-02T03:35:52.454Z,3.86
2023-04-02T03:36:52.372Z,3.83
2023-04-02T03:37:52.367Z,3.83
2023-04-02T03:38:52.338Z,3.80
2023-04-02T03:39:52.338Z,3.80
2023-04-02T03:40:52.337Z,3.84
2023-04-02T03:41:52.319Z,3.80
2023-04-02T03:42:52.293Z,3.81
2023-04-02T03:43:52.300Z,3.80
2023-04-02T03:44:52.288Z,3.78
2023-04-02T03:45:52.285Z,3.78
2023-04-02T03:46:52.306Z,3.74
2023-04-02T03:47:52.303Z,3.69
2023-04-02T03:48:52.252Z,3.70
2023-04-02T03:49:52.231Z,3.69
2023-04-02T03:50:52.235Z,3.68
2023-04-02T03:51:52.220Z,3.66
2023-04-02T03:52:52.200Z,3.68
2023-04-02T03:53:52.193Z,3.68
2023-04-02T03:54:53.167Z,3.65
2023-04-02T03:55:52.193Z,3.66
2023-04-02T03:56:52.228Z,3.63
2023-04-02T03:57:52.186Z,3.62
2023-04-02T03:58:52.140Z,3.65
2023-04-02T03:59:52.136Z,3.62
2023-04-02T04:00:52.175Z,3.60
2023-04-02T04:01:52.166Z,3.60
2023-04-02T04:02:52.169Z,3.60
2023-04-02T04:03:52.176Z,3.58
2023-04-02T04:04:52.098Z,3.58
2023-04-02T04:05:52.078Z,3.56
2023-04-02T04:06:52.070Z,3.56
2023-04-02T04:07:52.040Z,3.56
2023-04-02T04:08:52.051Z,3.53
2023-04-02T04:09:52.044Z,3.53
2023-04-02T04:10:52.072Z,3.53
2023-04-02T04:11:52.012Z,3.55
2023-04-02T04:12:51.994Z,3.51
2023-04-02T04:13:51.985Z,3.53
2023-04-02T04:14:51.968Z,3.50
2023-04-02T04:15:51.980Z,3.50
2023-04-02T04:16:52.083Z,3.45
2023-04-02T04:17:52.907Z,3.42
2023-04-02T04:18:51.949Z,3.42
2023-04-02T04:19:51.996Z,3.41
2023-04-02T04:20:51.934Z,3.41
2023-04-02T04:21:51.918Z,3.44
2023-04-02T04:22:52.091Z,3.42
2023-04-02T04:23:51.892Z,3.40
2023-04-02T04:24:51.875Z,3.40
2023-04-02T04:25:51.832Z,3.36
2023-04-02T04:26:51.870Z,3.40
2023-04-02T04:27:51.845Z,3.40
2023-04-02T04:28:51.812Z,3.40
2023-04-02T04:29:51.770Z,3.37
2023-04-02T04:30:51.779Z,3.36
2023-04-02T04:31:51.815Z,3.36
2023-04-02T04:32:51.878Z,3.32
2023-04-02T04:33:51.760Z,3.32
2023-04-02T04:34:51.711Z,3.32
2023-04-02T04:35:51.767Z,3.28
2023-04-02T04:36:51.750Z,3.25
2023-04-02T04:37:51.753Z,3.25
2023-04-02T04:38:51.699Z,3.25
2023-04-02T04:39:51.675Z,3.25
2023-04-02T04:40:51.677Z,3.26
2023-04-02T04:41:51.647Z,3.22
2023-04-02T04:42:51.649Z,3.21
2023-04-02T04:43:51.640Z,3.16
2023-04-02T04:44:51.630Z,3.13
2023-04-02T04:45:51.723Z,3.13
2023-04-02T04:46:51.590Z,3.11
2023-04-02T04:47:51.648Z,3.11
2023-04-02T04:48:51.573Z,3.08
2023-04-02T04:49:51.573Z,3.10
2023-04-02T04:50:51.606Z,3.08
2023-04-02T04:51:51.552Z,3.03
2023-04-02T04:52:51.549Z,3.05
2023-04-02T04:53:51.526Z,3.03
2023-04-02T04:54:51.516Z,3.04
2023-04-02T04:55:51.573Z,3.05
2023-04-02T04:56:51.531Z,3.07
2023-04-02T04:57:51.484Z,3.07
2023-04-02T04:58:51.498Z,3.05
2023-04-02T04:59:51.463Z,3.05
2023-04-02T05:00:51.461Z,3.05
2023-04-02T05:01:51.534Z,3.04
2023-04-02T05:02:51.433Z,3.00
2023-04-02T05:03:51.428Z,2.97
2023-04-02T05:04:51.474Z,2.92
2023-04-02T05:05:51.474Z,2.97
2023-04-02T05:06:51.394Z,2.92
2023-04-02T05:07:51.392Z,2.92
2023-04-02T05:08:51.375Z,2.89
2023-04-02T05:09:51.372Z,2.89
2023-04-02T05:10:51.380Z,2.89
2023-04-02T05:11:51.347Z,2.85
2023-04-02T05:12:51.344Z,2.86
2023-04-02T05:13:51.344Z,2.86
2023-04-02T05:14:51.324Z,2.86
2023-04-02T05:15:51.414Z,2.87
2023-04-02T05:16:51.294Z,2.86
2023-04-02T05:17:51.374Z,2.86
2023-04-02T05:18:51.264Z,2.82
2023-04-02T05:19:51.287Z,2.82
2023-04-02T05:20:51.277Z,2.79
2023-04-02T05:21:51.256Z,2.79
2023-04-02T05:22:51.225Z,2.80
2023-04-02T05:23:51.227Z,2.80
2023-04-02T05:24:51.198Z,2.75
2023-04-02T05:25:51.216Z,2.75
2023-04-02T05:26:51.212Z,2.75
2023-04-02T05:27:51.183Z,2.75
2023-04-02T05:28:51.196Z,2.72
2023-04-02T05:29:51.172Z,2.68
2023-04-02T05:30:51.148Z,2.69
2023-04-02T05:31:51.189Z,2.69
2023-04-02T05:32:51.200Z,2.69
2023-04-02T05:33:51.125Z,2.72
2023-04-02T05:34:51.105Z,2.71
2023-04-02T05:35:51.131Z,2.72
2023-04-02T05:36:51.124Z,2.71
2023-04-02T05:37:51.098Z,2.67
2023-04-02T05:38:51.143Z,2.65
2023-04-02T05:39:51.059Z,2.62
2023-04-02T05:40:51.069Z,2.61
2023-04-02T05:41:51.049Z,2.60
2023-04-02T05:42:51.028Z,2.51
2023-04-02T05:43:51.045Z,2.53
2023-04-02T05:44:51.001Z,2.54
2023-04-02T05:45:51.048Z,2.54
2023-04-02T05:46:51.051Z,2.53
2023-04-02T05:47:51.020Z,2.54
2023-04-02T05:48:50.975Z,2.51
2023-04-02T05:49:50.974Z,2.50
2023-04-02T05:50:50.973Z,2.46
2023-04-02T05:51:50.953Z,2.43
2023-04-02T05:52:50.936Z,2.43
2023-04-02T05:53:50.928Z,2.42
2023-04-02T05:54:50.907Z,2.43
2023-04-02T05:55:50.936Z,2.43
2023-04-02T05:56:50.921Z,2.43
2023-04-02T05:58:13.600Z,2.42
2023-04-02T05:58:50.905Z,2.46
2023-04-02T05:59:50.882Z,2.46
2023-04-02T06:00:50.846Z,2.46
2023-04-02T06:01:51.023Z,2.44
2023-04-02T06:02:50.964Z,2.44
2023-04-02T06:03:50.876Z,2.39
2023-04-02T06:04:50.808Z,2.39
2023-04-02T06:05:50.807Z,2.43
2023-04-02T06:06:50.842Z,2.46
2023-04-02T06:07:50.799Z,2.46
2023-04-02T06:08:50.771Z,2.44
2023-04-02T06:09:50.778Z,2.46
2023-04-02T06:10:50.918Z,2.46
2023-04-02T06:11:50.766Z,2.43
2023-04-02T06:12:50.725Z,2.46
2023-04-02T06:13:50.734Z,2.44
2023-04-02T06:14:50.734Z,2.46
2023-04-02T06:15:50.721Z,2.49
2023-04-02T06:16:50.756Z,2.49
2023-04-02T06:17:50.712Z,2.49
2023-04-02T06:18:50.671Z,2.47
2023-04-02T06:19:50.660Z,2.50
2023-04-02T06:20:50.649Z,2.50
2023-04-02T06:21:50.665Z,2.50
2023-04-02T06:22:50.616Z,2.53
2023-04-02T06:23:50.630Z,2.49
2023-04-02T06:24:50.606Z,2.50
2023-04-02T06:25:50.610Z,2.50
2023-04-02T06:26:50.618Z,2.51
2023-04-02T06:27:50.580Z,2.54
2023-04-02T06:28:50.569Z,2.54
2023-04-02T06:29:50.569Z,2.54
2023-04-02T06:30:50.580Z,2.51
2023-04-02T06:31:50.595Z,2.56
2023-04-02T06:32:50.613Z,2.60
2023-04-02T06:33:50.524Z,2.57
2023-04-02T06:34:50.525Z,2.57
2023-04-02T06:35:50.553Z,2.56
2023-04-02T06:36:50.525Z,2.57
2023-04-02T06:37:50.490Z,2.61
2023-04-02T06:38:50.464Z,2.61
2023-04-02T06:39:50.466Z,2.62
2023-04-02T06:40:50.444Z,2.65
2023-04-02T06:41:50.481Z,2.68
2023-04-02T06:42:50.429Z,2.68
2023-04-02T06:43:50.431Z,2.71
2023-04-02T06:44:50.407Z,2.71
2023-04-02T06:45:50.452Z,2.75
2023-04-02T06:46:52.407Z,2.75
2023-04-02T06:47:50.440Z,2.75
2023-04-02T06:48:50.381Z,2.74
2023-04-02T06:49:50.375Z,2.75
2023-04-02T06:50:50.357Z,2.75
2023-04-02T06:51:50.359Z,2.72
2023-04-02T06:52:50.344Z,2.71
2023-04-02T06:53:50.342Z,2.68
2023-04-02T06:54:50.369Z,2.69
2023-04-02T06:55:50.313Z,2.71
2023-04-02T06:56:50.310Z,2.72
2023-04-02T06:57:50.294Z,2.72
2023-04-02T06:58:50.266Z,2.72
2023-04-02T06:59:50.269Z,2.77
2023-04-02T07:00:50.250Z,2.82
2023-04-02T07:01:50.271Z,2.85
2023-04-02T07:02:50.283Z,2.92
2023-04-02T07:03:50.224Z,2.93
2023-04-02T07:04:50.209Z,2.97
2023-04-02T07:05:50.201Z,2.98
2023-04-02T07:06:50.190Z,2.98
2023-04-02T07:07:50.168Z,2.95
2023-04-02T07:08:50.191Z,2.93
2023-04-02T07:09:50.162Z,2.95
2023-04-02T07:10:50.140Z,2.90
2023-04-02T07:11:50.149Z,2.89
2023-04-02T07:12:50.111Z,2.93
2023-04-02T07:13:50.108Z,2.92
2023-04-02T07:14:50.092Z,2.90
2023-04-02T07:15:50.155Z,2.92
2023-04-02T07:16:50.089Z,2.92
2023-04-02T07:17:50.105Z,2.87
2023-04-02T07:18:50.056Z,2.85
2023-04-02T07:19:50.061Z,2.85
2023-04-02T07:20:51.519Z,2.86
2023-04-02T07:21:50.055Z,2.85
2023-04-02T07:22:50.009Z,2.83
2023-04-02T07:23:50.006Z,2.85
2023-04-02T07:24:49.989Z,2.85
2023-04-02T07:25:49.989Z,2.80
2023-04-02T07:26:50.005Z,2.83
2023-04-02T07:27:49.963Z,2.82
2023-04-02T07:28:49.958Z,2.83
2023-04-02T07:29:49.954Z,2.80
2023-04-02T07:30:49.928Z,2.79
2023-04-02T07:31:50.057Z,2.77
2023-04-02T07:32:49.957Z,2.77
2023-04-02T07:33:49.928Z,2.75
2023-04-02T07:34:49.885Z,2.74
2023-04-02T07:35:49.905Z,2.79
2023-04-02T07:36:49.895Z,2.77
2023-04-02T07:37:49.879Z,2.80
2023-04-02T07:38:49.850Z,2.77
2023-04-02T07:39:49.840Z,2.79
2023-04-02T07:40:49.826Z,2.79
2023-04-02T07:41:49.844Z,2.80
2023-04-02T07:42:49.810Z,2.77
2023-04-02T07:43:49.803Z,2.83
2023-04-02T07:44:49.794Z,2.85
2023-04-02T07:45:49.783Z,2.90
2023-04-02T07:46:49.852Z,2.86
2023-04-02T07:47:49.815Z,2.87
2023-04-02T07:48:49.892Z,2.93
2023-04-02T07:49:49.745Z,2.97
2023-04-02T07:50:49.736Z,2.97
2023-04-02T07:51:49.744Z,2.95
2023-04-02T07:52:49.707Z,3.00
2023-04-02T07:53:49.711Z,3.00
2023-04-02T07:54:49.686Z,3.01
2023-04-02T07:55:49.685Z,3.01
2023-04-02T07:56:49.699Z,3.01
2023-04-02T07:57:49.660Z,3.08
2023-04-02T07:58:49.662Z,3.13
2023-04-02T07:59:49.645Z,3.16
2023-04-02T08:00:49.624Z,3.21
2023-04-02T08:01:49.687Z,3.25
2023-04-02T08:02:49.626Z,3.21
2023-04-02T08:03:50.454Z,3.14
2023-04-02T08:04:49.585Z,3.13
2023-04-02T08:05:49.580Z,3.13
2023-04-02T08:06:49.606Z,3.14
2023-04-02T08:07:49.568Z,3.19
2023-04-02T08:08:49.570Z,3.19
2023-04-02T08:09:49.549Z,3.18
2023-04-02T08:10:49.546Z,3.14
2023-04-02T08:11:49.542Z,3.18
2023-04-02T08:12:49.550Z,3.23
2023-04-02T08:13:49.515Z,3.25
2023-04-02T08:14:49.510Z,3.29
2023-04-02T08:15:49.489Z,3.29
2023-04-02T08:16:49.607Z,3.31
2023-04-02T08:17:49.487Z,3.32
2023-04-02T08:18:49.450Z,3.36
2023-04-02T08:19:55.118Z,3.37
2023-04-02T08:20:49.438Z,3.40
2023-04-02T08:21:49.446Z,3.42
2023-04-02T08:22:49.418Z,3.37
2023-04-02T08:23:49.405Z,3.41
2023-04-02T08:24:49.392Z,3.41
2023-04-02T08:25:49.382Z,3.42
2023-04-02T08:26:49.397Z,3.48
2023-04-02T08:27:49.379Z,3.47
2023-04-02T08:28:49.348Z,3.48
2023-04-02T08:29:49.341Z,3.56
2023-04-02T08:30:49.362Z,3.59
2023-04-02T08:31:49.365Z,3.60
2023-04-02T08:32:49.347Z,3.58
2023-04-02T08:33:49.311Z,3.62
2023-04-02T08:34:49.287Z,3.62
2023-04-02T08:35:49.356Z,3.65
2023-04-02T08:36:49.298Z,3.73
2023-04-02T08:37:49.271Z,3.76
2023-04-02T08:38:49.249Z,3.76
2023-04-02T08:39:49.247Z,3.77
2023-04-02T08:40:49.231Z,3.80
2023-04-02T08:41:49.292Z,3.87
2023-04-02T08:42:49.235Z,3.88
2023-04-02T08:43:49.197Z,3.87
2023-04-02T08:44:49.186Z,3.88
2023-04-02T08:45:49.171Z,3.88
2023-04-02T08:46:49.569Z,3.94
2023-04-02T08:47:49.223Z,3.92
2023-04-02T08:48:49.144Z,3.88
2023-04-02T08:49:49.134Z,3.88
2023-04-02T08:50:49.138Z,3.88
2023-04-02T08:51:49.138Z,3.88
2023-04-02T08:52:49.111Z,3.88
2023-04-02T08:53:49.090Z,3.87
2023-04-02T08:54:49.107Z,3.87
2023-04-02T08:55:49.098Z,3.91
2023-04-02T08:56:49.107Z,3.91
2023-04-02T08:57:49.049Z,3.92
2023-04-02T08:58:49.078Z,3.91
2023-04-02T08:59:49.032Z,3.91
2023-04-02T09:00:49.036Z,3.94
2023-04-02T09:01:49.075Z,3.94
2023-04-02T09:02:49.084Z,3.94
2023-04-02T09:03:48.998Z,3.91
2023-04-02T09:04:49.098Z,3.94
2023-04-02T09:05:48.971Z,3.92
2023-04-02T09:06:48.972Z,3.95
2023-04-02T09:07:48.980Z,3.87
2023-04-02T09:08:48.956Z,3.84
2023-04-02T09:09:48.936Z,3.80
2023-04-02T09:10:48.949Z,3.81
2023-04-02T09:11:48.909Z,3.78
2023-04-02T09:12:48.901Z,3.77
2023-04-02T09:13:48.890Z,3.80
2023-04-02T09:14:48.884Z,3.77
2023-04-02T09:15:48.905Z,3.77
2023-04-02T09:16:48.859Z,3.78
2023-04-02T09:17:53.945Z,3.80
2023-04-02T09:18:48.857Z,3.81
2023-04-02T09:19:48.827Z,3.84
2023-04-02T09:20:48.824Z,3.84
2023-04-02T09:21:48.823Z,3.88
2023-04-02T09:22:48.807Z,3.95
2023-04-02T09:23:48.800Z,3.92
2023-04-02T09:24:48.788Z,3.96
2023-04-02T09:26:03.039Z,3.98
2023-04-02T09:26:48.796Z,3.95
2023-04-02T09:27:48.770Z,3.99
2023-04-02T09:28:48.746Z,3.99
2023-04-02T09:29:48.723Z,4.01
2023-04-02T09:30:48.720Z,3.99
2023-04-02T09:31:48.736Z,4.01
2023-04-02T09:32:48.746Z,3.96
2023-04-02T09:33:48.687Z,3.98
2023-04-02T09:34:48.688Z,3.96
2023-04-02T09:35:48.677Z,3.95
2023-04-02T09:36:48.668Z,3.92
2023-04-02T09:37:48.677Z,3.96
2023-04-02T09:38:48.644Z,3.96
2023-04-02T09:39:48.626Z,3.96
2023-04-02T09:40:48.624Z,4.02
2023-04-02T09:41:59.004Z,4.05
2023-04-02T09:42:48.636Z,4.04
2023-04-02T09:43:48.597Z,4.02
2023-04-02T09:44:48.585Z,4.01
2023-04-02T09:45:48.563Z,4.05
2023-04-02T09:46:48.589Z,4.02
2023-04-02T09:47:48.625Z,4.05
2023-04-02T09:48:48.541Z,4.04
2023-04-02T09:49:48.524Z,4.04
2023-04-02T09:50:48.521Z,4.08
2023-04-02T09:51:48.501Z,4.08
2023-04-02T09:52:48.521Z,4.10
2023-04-02T09:53:48.488Z,4.17
2023-04-02T09:54:48.478Z,4.17
2023-04-02T09:55:48.461Z,4.23
2023-04-02T09:56:48.460Z,4.22
2023-04-02T09:57:48.477Z,4.28
2023-04-02T09:58:48.443Z,4.31
2023-04-02T09:59:48.423Z,4.31
2023-04-02T10:00:48.434Z,4.30
2023-04-02T10:01:48.413Z,4.32
2023-04-02T10:02:48.571Z,4.37
2023-04-02T10:03:48.405Z,4.50
2023-04-02T10:04:48.732Z,4.59
2023-04-02T10:05:48.365Z,4.66
2023-04-02T10:06:48.357Z,4.60
2023-04-02T10:07:48.367Z,4.58
2023-04-02T10:08:48.342Z,4.60
2023-04-02T10:09:48.317Z,4.62
2023-04-02T10:10:48.317Z,4.63
2023-04-02T10:11:48.302Z,4.63
2023-04-02T10:12:48.332Z,4.59
2023-04-02T10:13:48.293Z,4.49
2023-04-02T10:14:48.274Z,4.48
2023-04-02T10:15:48.260Z,4.49
2023-04-02T10:16:48.296Z,4.44
2023-04-02T10:17:48.267Z,4.38
2023-04-02T10:18:48.238Z,4.40
2023-04-02T10:19:48.218Z,4.32
2023-04-02T10:20:51.393Z,4.34
2023-04-02T10:21:48.196Z,4.31
2023-04-02T10:22:48.209Z,4.30
2023-04-02T10:23:48.185Z,4.24
2023-04-02T10:24:48.179Z,4.24
2023-04-02T10:25:48.162Z,4.28
2023-04-02T10:26:48.154Z,4.16
2023-04-02T10:27:48.143Z,4.14
2023-04-02T10:28:48.139Z,4.22
2023-04-02T10:29:48.134Z,4.26
2023-04-02T10:30:48.187Z,4.30
2023-04-02T10:31:48.103Z,4.26
2023-04-02T10:32:48.143Z,4.24
2023-04-02T10:33:48.079Z,4.14
2023-04-02T10:34:48.069Z,4.17
2023-04-02T10:35:48.068Z,4.17
2023-04-02T10:36:48.054Z,4.22
2023-04-02T10:37:48.261Z,4.23
2023-04-02T10:38:48.031Z,4.26
2023-04-02T10:39:48.019Z,4.31
2023-04-02T10:40:48.012Z,4.37
2023-04-02T10:41:48.003Z,4.45
2023-04-02T10:42:48.455Z,4.45
2023-04-02T10:43:47.979Z,4.53
2023-04-02T10:44:47.970Z,4.56
2023-04-02T10:45:47.982Z,4.59
2023-04-02T10:46:47.950Z,4.60
2023-04-02T10:47:47.980Z,4.63
2023-04-02T10:48:47.954Z,4.59
2023-04-02T10:49:47.954Z,4.59
2023-04-02T10:50:47.914Z,4.53
2023-04-02T10:51:47.896Z,4.52
2023-04-02T10:52:47.913Z,4.52
2023-04-02T10:53:47.874Z,4.45
2023-04-02T10:54:47.899Z,4.37
2023-04-02T10:55:47.861Z,4.37
2023-04-02T10:56:51.085Z,4.32
2023-04-02T10:57:47.892Z,4.31
2023-04-02T10:58:47.835Z,4.41
2023-04-02T10:59:47.824Z,4.49
2023-04-02T11:00:47.822Z,4.32
2023-04-02T11:01:47.852Z,4.37
2023-04-02T11:02:47.928Z,4.31
2023-04-02T11:03:48.670Z,4.40
2023-04-02T11:04:47.764Z,4.40
2023-04-02T11:05:48.451Z,4.44
2023-04-02T11:06:47.749Z,4.48
2023-04-02T11:07:47.779Z,4.58
2023-04-02T11:08:47.745Z,4.66
2023-04-02T11:09:47.713Z,4.71
2023-04-02T11:10:47.716Z,4.82
2023-04-02T11:11:47.693Z,4.84
2023-04-02T11:12:47.736Z,4.90
2023-04-02T11:13:47.671Z,4.97
2023-04-02T11:14:47.669Z,5.00
2023-04-02T11:15:47.745Z,5.00
2023-04-02T11:16:47.700Z,5.02
2023-04-02T11:17:47.765Z,5.00
2023-04-02T11:18:47.627Z,4.90
2023-04-02T11:19:47.624Z,4.93
2023-04-02T11:20:47.622Z,4.93
2023-04-02T11:21:57.975Z,4.94
2023-04-02T11:22:47.629Z,5.00
2023-04-02T11:23:47.567Z,5.00
2023-04-02T11:24:47.566Z,5.00
2023-04-02T11:25:47.553Z,5.07
2023-04-02T11:26:47.555Z,5.14
2023-04-02T11:27:47.534Z,5.18
2023-04-02T11:28:47.540Z,5.23
2023-04-02T11:29:47.507Z,5.23
2023-04-02T11:30:47.510Z,5.17
2023-04-02T11:31:47.507Z,5.29
2023-04-02T11:32:47.518Z,5.32
2023-04-02T11:33:49.976Z,5.28
2023-04-02T11:34:56.420Z,5.21
2023-04-02T11:35:47.484Z,5.25
2023-04-02T11:36:47.455Z,5.36
2023-04-02T11:37:47.443Z,5.53
2023-04-02T11:38:47.469Z,5.33
2023-04-02T11:39:47.409Z,5.35
2023-04-02T11:40:47.405Z,5.32
2023-04-02T11:41:47.399Z,5.48
2023-04-02T11:42:47.382Z,5.65
2023-04-02T11:43:47.394Z,5.87
2023-04-02T11:44:47.374Z,6.07
2023-04-02T11:45:52.958Z,5.97
2023-04-02T11:46:47.381Z,5.69
2023-04-02T11:47:47.376Z,5.79
2023-04-02T11:48:47.353Z,5.87
2023-04-02T11:49:47.301Z,5.93
2023-04-02T11:50:47.312Z,5.91
2023-04-02T11:51:47.282Z,6.12
2023-04-02T11:52:47.284Z,6.35
2023-04-02T11:53:47.285Z,6.51
2023-04-02T11:54:47.264Z,6.69
2023-04-02T11:55:47.246Z,6.82
2023-04-02T11:56:47.322Z,6.97
2023-04-02T11:57:47.230Z,7.05
2023-04-02T11:58:47.234Z,7.14
2023-04-02T11:59:47.198Z,7.28
2023-04-02T12:00:47.200Z,7.39
2023-04-02T12:01:47.202Z,7.43
2023-04-02T12:02:47.205Z,7.40
2023-04-02T12:03:47.192Z,7.33
2023-04-02T12:04:47.190Z,7.32
2023-04-02T12:05:47.143Z,7.33
2023-04-02T12:06:47.367Z,7.33
2023-04-02T12:07:47.114Z,7.43
2023-04-02T12:08:57.174Z,7.47
2023-04-02T12:09:47.102Z,7.53
2023-04-02T12:10:47.089Z,7.56
2023-04-02T12:11:47.078Z,7.51
2023-04-02T12:12:47.072Z,7.51
2023-04-02T12:13:47.129Z,7.56
2023-04-02T12:14:47.066Z,7.58
2023-04-02T12:15:47.037Z,7.63
2023-04-02T12:16:47.045Z,7.61
2023-04-02T12:17:47.065Z,7.60
2023-04-02T12:18:47.035Z,7.45
2023-04-02T12:19:47.015Z,6.88
2023-04-02T12:20:46.990Z,6.75
2023-04-02T12:21:46.972Z,6.85
2023-04-02T12:22:46.969Z,6.93
2023-04-02T12:23:47.015Z,6.95
2023-04-02T12:24:46.959Z,7.06
2023-04-02T12:25:46.952Z,7.25
2023-04-02T12:26:46.984Z,7.35
2023-04-02T12:27:46.963Z,7.33
2023-04-02T12:28:47.022Z,7.24
2023-04-02T12:29:46.981Z,7.24
2023-04-02T12:30:46.921Z,7.35
2023-04-02T12:31:46.875Z,7.50
2023-04-02T12:32:47.479Z,7.63
2023-04-02T12:33:47.568Z,7.73
2023-04-02T12:34:47.565Z,7.73
2023-04-02T12:35:47.476Z,7.70
2023-04-02T12:36:46.828Z,7.72
2023-04-02T12:37:47.480Z,7.61
2023-04-02T12:38:48.461Z,7.58
2023-04-02T12:39:47.459Z,7.67
2023-04-02T12:40:46.790Z,7.53
2023-04-02T12:41:46.774Z,7.54
2023-04-02T12:42:46.774Z,7.40
2023-04-02T12:43:46.793Z,7.93
2023-04-02T12:44:46.748Z,8.05
2023-04-02T12:45:46.726Z,8.03
2023-04-02T12:46:46.727Z,8.10
2023-04-02T12:47:46.725Z,8.18
2023-04-02T12:48:46.716Z,8.06
2023-04-02T12:49:46.692Z,8.12
2023-04-02T12:50:46.677Z,8.10
2023-04-02T12:51:46.663Z,7.77
2023-04-02T12:52:46.664Z,7.70
2023-04-02T12:53:46.936Z,7.90
2023-04-02T12:54:46.655Z,7.72
2023-04-02T12:55:46.616Z,7.51
2023-04-02T12:56:46.643Z,7.33
2023-04-02T12:57:46.608Z,7.21
2023-04-02T12:58:46.614Z,7.10
2023-04-02T12:59:46.616Z,7.13
2023-04-02T13:00:46.600Z,7.10
2023-04-02T13:01:46.624Z,7.23
2023-04-02T13:02:46.562Z,7.15
2023-04-02T13:03:46.555Z,7.20
2023-04-02T13:04:46.532Z,7.13
2023-04-02T13:05:46.604Z,7.06
2023-04-02T13:06:46.510Z,6.99
2023-04-02T13:07:46.514Z,6.89
2023-04-02T13:08:46.511Z,6.81
2023-04-02T13:09:46.487Z,6.72
2023-04-02T13:10:46.515Z,6.64
2023-04-02T13:11:46.465Z,6.63
2023-04-02T13:12:46.461Z,6.62
2023-04-02T13:13:46.447Z,6.38
2023-04-02T13:14:46.433Z,6.33
2023-04-02T13:15:46.618Z,6.44
2023-04-02T13:16:46.414Z,6.51
2023-04-02T13:17:46.420Z,6.39
2023-04-02T13:18:46.434Z,6.33